Météo Nord-Pas-de-Calais   La météo au plus près de chez vous

Station météorologique

Observations météo à Brive-Souillac (19147)

19147001 295 m Dernier relevé à 05:48
16.8°C
Humidité 88 % Vent 0 km/h 1021.8 hPa

Journée consultée

Dimanche 6 Septembre 2026

Synthèse de la journée

Périodes de référence en UTC

Température maximale

31.5°C

à 17:00

06h 06h

Température minimale

15.8°C

à 04:54

18h 18h

Rafale maximale

5 km/h

à 05:00

00h 00h

Précipitations

0 mm

Cumul quotidien

06h 06h

Graphiques de la journée

Heure locale Réduire

Données détaillées

Relevés météo

Pas de 6 minutes Afficher les relevés infra-horaires
Relevés météo détaillés à Brive-Souillac pour le Dimanche 6 Septembre 2026
Heure Température °C Point de rosée °C Humidité % Vent moyen (raf.), km/h Précipitations mm Visibilité m Pression hPa
05:48 16.8 °C 14.6 °C 87 % 2 km/h (4 km/h) 0 mm0 mm 60000 m 1021.3 hPa
05:42 16.6 °C 14.4 °C 87 % 3 km/h (4 km/h) 0 mm0 mm 60000 m 1021.5 hPa
05:36 16.6 °C 14.2 °C 86 % 3 km/h (4 km/h) 0 mm0 mm 60000 m 1021.4 hPa
05:30 16.6 °C 14.4 °C 87 % 2 km/h (4 km/h) 0 mm0 mm 60000 m 1021.2 hPa
05:24 16.2 °C 14.6 °C 90 % 2 km/h (5 km/h) 0 mm0 mm 60000 m 1021.3 hPa
05:18 15.8 °C 14 °C 89 % 3 km/h (5 km/h) 0 mm0 mm 60000 m 1021.5 hPa
05:12 15.8 °C 14 °C 89 % 0 km/h (3 km/h) 0 mm0 mm 60000 m 1021.4 hPa
05:06 15.8 °C 13.8 °C 88 % 2 km/h (4 km/h) 0 mm0 mm 60000 m 1021.5 hPa
05:00 15.9 °C 14.1 °C 89 % 3 km/h (5 km/h) 0 mm0 mm 60000 m 1021.7 hPa
04:54 15.8 °C 13.8 °C 88 % 2 km/h (4 km/h) 0 mm0 mm 60000 m 1021.8 hPa
04:48 15.9 °C 13.9 °C 88 % 0 km/h (2 km/h) 0 mm0 mm 60000 m 1021.8 hPa
04:42 15.9 °C 13.9 °C 88 % 0 km/h (2 km/h) 0 mm0 mm 60000 m 1021.7 hPa
04:36 16 °C 14 °C 88 % 0 km/h (3 km/h) 0 mm0 mm 60000 m 1021.6 hPa
04:30 16 °C 13.8 °C 87 % 2 km/h (3 km/h) 0 mm0 mm 60000 m 1021.6 hPa
04:24 16 °C 13.8 °C 87 % 0 km/h (3 km/h) 0 mm0 mm 60000 m 1021.6 hPa
04:18 16.2 °C 13.9 °C 86 % 0 km/h (3 km/h) 0 mm0 mm 60000 m 1021.5 hPa
04:12 16.3 °C 14 °C 86 % 0 km/h (3 km/h) 0 mm0 mm 60000 m 1021.5 hPa
04:06 16.3 °C 13.8 °C 85 % 0 km/h (2 km/h) 0 mm0 mm 60000 m 1021.5 hPa
04:00 16.4 °C 14.1 °C 86 % 0 km/h (2 km/h) 0 mm0 mm 60000 m 1021.6 hPa
03:54 16.5 °C 14 °C 85 % 0 km/h (0 km/h) 0 mm0 mm 60000 m 1021.5 hPa
03:48 16.5 °C 14.1 °C 86 % 0 km/h (2 km/h) 0 mm0 mm 60000 m 1021.6 hPa
03:42 16.5 °C 14 °C 85 % 0 km/h (2 km/h) 0 mm0 mm 60000 m 1021.7 hPa
03:36 16.5 °C 14 °C 85 % 2 km/h (3 km/h) 0 mm0 mm 60000 m 1021.7 hPa
03:30 16.8 °C 14.1 °C 84 % 2 km/h (3 km/h) 0 mm0 mm 60000 m 1021.6 hPa
03:24 16.8 °C 14.1 °C 84 % 2 km/h (3 km/h) 0 mm0 mm 60000 m 1021.9 hPa
03:18 16.8 °C 14.1 °C 84 % 0 km/h (2 km/h) 0 mm0 mm 60000 m 1021.9 hPa
03:12 16.9 °C 14.2 °C 84 % 0 km/h (2 km/h) 0 mm0 mm 60000 m 1021.8 hPa
03:06 16.9 °C 14.2 °C 84 % 2 km/h (4 km/h) 0 mm0 mm 60000 m 1021.9 hPa
03:00 16.9 °C 14 °C 83 % 3 km/h (4 km/h) 0 mm0 mm 60000 m 1021.8 hPa
02:54 17 °C 14.1 °C 83 % 2 km/h (3 km/h) 0 mm0 mm 60000 m 1021.7 hPa
02:48 17.1 °C 14.2 °C 83 % 0 km/h (3 km/h) 0 mm0 mm 60000 m 1021.6 hPa
02:42 17.2 °C 14.1 °C 82 % 0 km/h (4 km/h) 0 mm0 mm 60000 m 1021.7 hPa
02:36 17.4 °C 14.1 °C 81 % 0 km/h (3 km/h) 0 mm0 mm 60000 m 1021.8 hPa
02:30 17.6 °C 14.3 °C 81 % 0 km/h (3 km/h) 0 mm0 mm 60000 m 1021.9 hPa
02:24 17.7 °C 14.2 °C 80 % 0 km/h (2 km/h) 0 mm0 mm 60000 m 1021.9 hPa
02:18 17.7 °C 14.2 °C 80 % 0 km/h (2 km/h) 0 mm0 mm 60000 m 1021.9 hPa
02:12 17.9 °C 14.2 °C 79 % 0 km/h (4 km/h) 0 mm0 mm 60000 m 1022 hPa
02:06 18.1 °C 14.4 °C 79 % 0 km/h (4 km/h) 0 mm0 mm 60000 m 1022 hPa
02:00 18.1 °C 14.4 °C 79 % 0 km/h (2 km/h) 0 mm0 mm 60000 m 1021.9 hPa
01:54 18.1 °C 14.4 °C 79 % 0 km/h (2 km/h) 0 mm0 mm 60000 m 1021.9 hPa
01:48 18.2 °C 14.5 °C 79 % 0 km/h (3 km/h) 0 mm0 mm 60000 m 1021.8 hPa
01:42 18.3 °C 14.2 °C 77 % 0 km/h (2 km/h) 0 mm0 mm 60000 m 1021.8 hPa
01:36 18.5 °C 14.4 °C 77 % 0 km/h (2 km/h) 0 mm0 mm 60000 m 1021.6 hPa
01:30 18.6 °C 14.5 °C 77 % 0 km/h (0 km/h) 0 mm0 mm 60000 m 1021.6 hPa
01:24 18.7 °C 14.4 °C 76 % 0 km/h (0 km/h) 0 mm0 mm 60000 m 1021.6 hPa
01:18 18.7 °C 14.4 °C 76 % 0 km/h (0 km/h) 0 mm0 mm 60000 m 1021.6 hPa
01:12 18.9 °C 14.4 °C 75 % 0 km/h (3 km/h) 0 mm0 mm 60000 m 1021.7 hPa
01:06 19.1 °C 14.6 °C 75 % 0 km/h (4 km/h) 0 mm0 mm 60000 m 1021.7 hPa
01:00 18.9 °C 14.6 °C 76 % 3 km/h (7 km/h) 0 mm0 mm 60000 m 1021.7 hPa
00:54 18.7 °C 14.4 °C 76 % 5 km/h (7 km/h) 0 mm0 mm 60000 m 1021.6 hPa
00:48 18.8 °C 14.5 °C 76 % 3 km/h (7 km/h) 0 mm0 mm 60000 m 1021.6 hPa
00:42 18.9 °C 14.4 °C 75 % 2 km/h (4 km/h) 0 mm0 mm 60000 m 1021.6 hPa
00:36 19 °C 14.5 °C 75 % 0 km/h (3 km/h) 0 mm0 mm 60000 m 1021.6 hPa
00:30 19 °C 14.5 °C 75 % 0 km/h (3 km/h) 0 mm0 mm 60000 m 1021.6 hPa
00:24 19.1 °C 14.6 °C 75 % 0 km/h (3 km/h) 0 mm0 mm 60000 m 1021.6 hPa
00:18 19.2 °C 14.5 °C 74 % 0 km/h (2 km/h) 0 mm0 mm 60000 m 1021.4 hPa
00:12 19.3 °C 14.5 °C 74 % 0 km/h (2 km/h) 0 mm0 mm 60000 m 1021.4 hPa
00:06 19.4 °C 14.4 °C 73 % 2 km/h (4 km/h) 0 mm0 mm 60000 m 1021.5 hPa
00:00 19.5 °C 14.5 °C 73 % 3 km/h (5 km/h) 0 mm0 mm 60000 m 1021.6 hPa

Données via Météo-France

Relevés météo à Brive-Souillac

Cette page rassemble les observations de la station de Brive-Souillac : température, humidité, vent, précipitations et pression atmosphérique. Les graphiques facilitent le suivi de la journée, tandis que le tableau donne accès aux mesures horaires et infra-horaires disponibles.

Pour replacer ces mesures dans leur contexte, consultez la climatologie de Brive-Souillac ainsi que ses normales et records. Retrouvez aussi la carte des observations météo en temps réel.